createdAt,value
2019-05-22T00:00:41.123Z,18.73
2019-05-22T00:03:14.764Z,19.17
2019-05-22T00:05:44.798Z,17.70
2019-05-22T00:08:13.968Z,18.70
2019-05-22T00:10:44.140Z,17.93
2019-05-22T00:13:14.316Z,18.17
2019-05-22T00:15:46.170Z,17.70
2019-05-22T00:18:16.002Z,16.13
2019-05-22T00:20:44.974Z,18.77
2019-05-22T00:23:15.138Z,16.30
2019-05-22T00:25:44.209Z,17.60
2019-05-22T00:28:13.101Z,18.90
2019-05-22T00:30:45.026Z,20.03
2019-05-22T00:33:14.813Z,17.47
2019-05-22T00:35:44.822Z,18.23
2019-05-22T00:38:15.021Z,18.60
2019-05-22T00:40:51.575Z,17.97
2019-05-22T00:43:33.982Z,18.20
2019-05-22T00:46:04.522Z,17.67
2019-05-22T00:48:35.080Z,17.83
2019-05-22T00:51:07.160Z,17.90
2019-05-22T00:53:50.000Z,18.33
2019-05-22T00:56:37.872Z,19.20
2019-05-22T00:59:21.154Z,18.47
2019-05-22T01:01:55.487Z,16.43
2019-05-22T01:04:30.059Z,16.30
2019-05-22T01:07:00.887Z,14.63
2019-05-22T01:09:31.624Z,17.50
2019-05-22T01:12:02.146Z,18.03
2019-05-22T01:14:42.632Z,17.33
2019-05-22T01:17:04.111Z,16.07
2019-05-22T01:19:34.062Z,16.77
2019-05-22T01:22:04.992Z,17.80
2019-05-22T01:24:34.825Z,17.80
2019-05-22T01:27:04.372Z,17.60
2019-05-22T01:29:34.052Z,16.57
2019-05-22T01:32:20.051Z,16.87
2019-05-22T01:34:49.245Z,15.40
2019-05-22T01:37:19.185Z,18.27
2019-05-22T01:39:51.294Z,18.23
2019-05-22T01:42:22.631Z,16.03
2019-05-22T01:45:04.488Z,19.33
2019-05-22T01:47:36.237Z,17.43
2019-05-22T01:50:06.417Z,17.40
2019-05-22T01:52:36.116Z,17.20
2019-05-22T01:55:06.559Z,15.07
2019-05-22T01:57:35.491Z,15.50
2019-05-22T02:00:05.928Z,15.50
2019-05-22T02:02:35.335Z,16.13
2019-05-22T02:05:05.925Z,16.40
2019-05-22T02:07:35.060Z,14.90
2019-05-22T02:10:06.802Z,16.13
2019-05-22T02:12:43.996Z,16.57
2019-05-22T02:15:12.984Z,17.47
2019-05-22T02:17:42.246Z,15.50
2019-05-22T02:20:11.212Z,16.00
2019-05-22T02:22:40.650Z,15.73
2019-05-22T02:25:09.913Z,16.87
2019-05-22T02:27:39.781Z,16.23
2019-05-22T02:30:10.318Z,16.10
2019-05-22T02:32:40.976Z,16.40
2019-05-22T02:35:10.214Z,17.23
2019-05-22T02:37:39.170Z,15.97
2019-05-22T02:40:10.706Z,17.03
2019-05-22T02:42:40.263Z,16.87
2019-05-22T02:45:10.290Z,15.93
2019-05-22T02:47:40.442Z,15.60
2019-05-22T02:50:09.371Z,16.53
2019-05-22T02:52:38.265Z,15.97
2019-05-22T02:55:08.505Z,19.30
2019-05-22T02:57:37.416Z,19.73
2019-05-22T03:00:06.562Z,22.03
2019-05-22T03:02:37.515Z,19.07
2019-05-22T03:05:11.308Z,16.87
2019-05-22T03:07:40.660Z,18.30
2019-05-22T03:10:10.929Z,17.77
2019-05-22T03:12:40.791Z,15.77
2019-05-22T03:15:12.867Z,17.30
2019-05-22T03:17:43.044Z,15.20
2019-05-22T03:20:13.567Z,16.07
2019-05-22T03:22:46.713Z,16.00
2019-05-22T03:25:17.855Z,17.60
2019-05-22T03:27:49.225Z,17.40
2019-05-22T03:30:33.571Z,15.70
2019-05-22T03:33:03.914Z,15.53
2019-05-22T03:35:34.626Z,17.60
2019-05-22T03:38:04.852Z,16.63
2019-05-22T03:40:34.917Z,16.23
2019-05-22T03:43:05.639Z,16.33
2019-05-22T03:45:35.884Z,17.60
2019-05-22T03:48:04.789Z,15.67
2019-05-22T03:50:34.630Z,15.70
2019-05-22T03:53:15.103Z,16.00
2019-05-22T03:55:44.783Z,13.60
2019-05-22T03:58:14.320Z,16.33
2019-05-22T04:00:45.209Z,17.50
2019-05-22T04:03:15.244Z,17.53
2019-05-22T04:05:46.202Z,16.77
2019-05-22T04:08:17.202Z,17.83
2019-05-22T04:10:54.413Z,16.80
2019-05-22T04:13:23.770Z,17.30
2019-05-22T04:15:53.103Z,15.57
2019-05-22T04:18:23.061Z,15.63
2019-05-22T04:20:53.408Z,16.50
2019-05-22T04:23:22.293Z,15.93
2019-05-22T04:25:53.517Z,15.87
2019-05-22T04:28:22.613Z,17.60
2019-05-22T04:30:51.874Z,17.87
2019-05-22T04:33:21.091Z,16.73
2019-05-22T04:35:51.026Z,17.00
2019-05-22T04:38:19.919Z,16.50
2019-05-22T04:40:49.445Z,16.67
2019-05-22T04:43:20.658Z,17.47
2019-05-22T04:45:50.754Z,16.87
2019-05-22T04:48:21.662Z,17.07
2019-05-22T04:50:51.823Z,17.37
2019-05-22T04:53:21.176Z,17.83
2019-05-22T04:55:50.204Z,15.73
2019-05-22T04:58:21.676Z,17.63
2019-05-22T05:00:50.568Z,17.83
2019-05-22T05:03:20.687Z,17.23
2019-05-22T05:05:53.996Z,17.90
2019-05-22T05:08:23.856Z,17.17
2019-05-22T05:10:55.819Z,16.33
2019-05-22T05:13:26.268Z,17.40
2019-05-22T05:15:55.510Z,17.93
2019-05-22T05:18:26.042Z,18.17
2019-05-22T05:20:55.490Z,18.43
2019-05-22T05:23:24.456Z,19.47
2019-05-22T05:25:53.446Z,18.83
2019-05-22T05:28:23.014Z,19.47
2019-05-22T05:30:52.050Z,22.47
2019-05-22T05:33:21.435Z,20.90
2019-05-22T05:35:50.716Z,21.10
2019-05-22T05:38:21.628Z,20.13
2019-05-22T05:40:50.974Z,21.73
2019-05-22T05:43:21.840Z,20.67
2019-05-22T05:45:51.202Z,20.27
2019-05-22T05:48:24.026Z,18.87
2019-05-22T05:51:06.909Z,22.20
2019-05-22T05:53:56.520Z,21.73
2019-05-22T05:56:26.643Z,22.30
2019-05-22T05:58:57.297Z,19.63
2019-05-22T06:01:28.186Z,21.63
2019-05-22T06:03:58.483Z,20.33
2019-05-22T06:06:30.606Z,20.77
2019-05-22T06:09:00.346Z,21.17
2019-05-22T06:11:33.473Z,22.17
2019-05-22T06:14:05.508Z,23.10
2019-05-22T06:16:36.014Z,21.67
2019-05-22T06:19:06.207Z,20.67
2019-05-22T06:21:37.093Z,22.07
2019-05-22T06:24:25.448Z,21.70
2019-05-22T06:26:56.972Z,21.90
2019-05-22T06:29:28.636Z,20.03
2019-05-22T06:32:06.679Z,20.40
2019-05-22T06:34:37.043Z,23.40
2019-05-22T06:37:24.487Z,22.73
2019-05-22T06:39:53.488Z,21.10
2019-05-22T06:42:22.386Z,22.90
2019-05-22T06:44:51.380Z,21.00
2019-05-22T06:47:20.744Z,19.50
2019-05-22T06:49:51.458Z,19.83
2019-05-22T06:52:20.950Z,19.13
2019-05-22T06:54:50.413Z,17.23
2019-05-22T06:57:21.247Z,19.20
2019-05-22T07:00:10.734Z,17.97
2019-05-22T07:02:23.517Z,16.77
2019-05-22T07:04:52.988Z,17.37
2019-05-22T07:07:21.957Z,18.33
2019-05-22T07:09:51.376Z,16.80
2019-05-22T07:12:20.538Z,20.10
2019-05-22T07:14:51.319Z,16.13
2019-05-22T07:17:20.973Z,17.33
2019-05-22T07:19:50.207Z,12.03
2019-05-22T07:22:19.373Z,13.60
2019-05-22T07:24:48.663Z,12.20
2019-05-22T07:27:23.761Z,13.30
2019-05-22T07:29:52.707Z,12.63
2019-05-22T07:32:21.604Z,13.60
2019-05-22T07:34:50.948Z,11.70
2019-05-22T07:37:21.335Z,8.93
2019-05-22T07:39:50.384Z,7.67
2019-05-22T07:42:19.455Z,12.93
2019-05-22T07:44:48.475Z,14.73
2019-05-22T07:47:20.019Z,14.43
2019-05-22T07:49:48.905Z,12.20
2019-05-22T07:52:18.001Z,12.20
2019-05-22T07:54:47.739Z,8.27
2019-05-22T07:57:21.573Z,7.17
2019-05-22T07:59:50.761Z,8.07
2019-05-22T08:02:21.146Z,6.37
2019-05-22T08:04:50.819Z,6.00
2019-05-22T08:07:21.413Z,3.10
2019-05-22T08:09:50.439Z,3.30
2019-05-22T08:12:20.319Z,3.23
2019-05-22T08:14:49.742Z,3.10
2019-05-22T08:17:20.099Z,3.23
2019-05-22T08:19:49.076Z,2.60
2019-05-22T08:22:18.043Z,2.90
2019-05-22T08:24:47.201Z,2.80
2019-05-22T08:27:17.547Z,2.70
2019-05-22T08:29:46.886Z,2.20
2019-05-22T08:32:16.430Z,2.40
2019-05-22T08:34:45.688Z,2.10
2019-05-22T08:37:16.179Z,2.10
2019-05-22T08:39:45.601Z,2.30
2019-05-22T08:42:16.585Z,1.60
2019-05-22T08:44:45.816Z,2.00
2019-05-22T08:47:14.882Z,1.83
2019-05-22T08:49:44.070Z,1.87
2019-05-22T08:52:22.998Z,1.50
2019-05-22T08:54:45.679Z,1.70
2019-05-22T08:57:14.636Z,1.40
2019-05-22T08:59:44.365Z,1.37
2019-05-22T09:02:13.370Z,1.53
2019-05-22T09:04:42.324Z,1.37
2019-05-22T09:07:11.479Z,1.60
2019-05-22T09:09:40.460Z,1.60
2019-05-22T09:12:11.085Z,1.40
2019-05-22T09:14:40.315Z,2.07
2019-05-22T09:17:10.940Z,1.93
2019-05-22T09:19:40.596Z,2.47
2019-05-22T09:22:09.623Z,2.60
2019-05-22T09:24:38.816Z,2.30
2019-05-22T09:27:08.854Z,3.23
2019-05-22T09:29:38.081Z,3.23
2019-05-22T09:32:07.188Z,4.13
2019-05-22T09:34:36.772Z,3.30
2019-05-22T09:37:06.599Z,3.00
2019-05-22T09:39:35.592Z,3.50
2019-05-22T09:42:04.468Z,3.93
2019-05-22T09:44:33.358Z,3.10
2019-05-22T09:47:02.342Z,3.03
2019-05-22T09:49:32.203Z,3.47
2019-05-22T09:52:01.462Z,3.30
2019-05-22T09:54:31.137Z,4.03
2019-05-22T09:57:01.168Z,3.70
2019-05-22T09:59:30.087Z,3.50
2019-05-22T10:01:59.112Z,2.73
2019-05-22T10:04:28.249Z,3.00
2019-05-22T10:06:57.189Z,3.00
2019-05-22T10:09:26.543Z,3.00
2019-05-22T10:11:55.615Z,2.90
2019-05-22T10:14:24.879Z,2.97
2019-05-22T10:16:54.019Z,2.73
2019-05-22T10:19:23.029Z,2.87
2019-05-22T10:21:52.884Z,2.50
2019-05-22T10:24:22.159Z,2.57
2019-05-22T10:26:52.121Z,3.20
2019-05-22T10:29:21.244Z,2.50
2019-05-22T10:31:50.457Z,3.00
2019-05-22T10:34:19.544Z,2.83
2019-05-22T10:36:48.663Z,2.70
2019-05-22T10:39:17.683Z,2.90
2019-05-22T10:41:46.580Z,2.93
2019-05-22T10:44:15.614Z,3.27
2019-05-22T10:46:46.055Z,2.80
2019-05-22T10:49:15.004Z,3.80
2019-05-22T10:51:43.990Z,3.60
2019-05-22T10:54:13.062Z,3.30
2019-05-22T10:56:41.948Z,2.70
2019-05-22T10:59:10.828Z,2.90
2019-05-22T11:01:39.948Z,2.60
2019-05-22T11:04:10.064Z,2.23
2019-05-22T11:06:39.532Z,2.90
2019-05-22T11:09:09.688Z,3.20
2019-05-22T11:11:39.415Z,2.90
2019-05-22T11:14:09.698Z,2.50
2019-05-22T11:16:39.293Z,3.00
2019-05-22T11:19:08.353Z,3.10
2019-05-22T11:21:37.240Z,2.40
2019-05-22T11:24:12.344Z,2.80
2019-05-22T11:26:41.377Z,2.43
2019-05-22T11:29:10.280Z,2.53
2019-05-22T11:31:39.837Z,2.30
2019-05-22T11:34:09.373Z,2.30
2019-05-22T11:36:39.019Z,1.97
2019-05-22T11:39:11.334Z,2.17
2019-05-22T11:41:40.574Z,1.90
2019-05-22T11:44:10.161Z,2.00
2019-05-22T11:46:39.606Z,1.90
2019-05-22T11:49:08.495Z,1.90
2019-05-22T11:51:37.654Z,2.10
2019-05-22T11:54:09.708Z,1.93
2019-05-22T11:56:37.375Z,2.87
2019-05-22T11:59:06.491Z,3.00
2019-05-22T12:01:35.470Z,2.40
2019-05-22T12:04:05.556Z,2.57
2019-05-22T12:06:34.669Z,2.33
2019-05-22T12:09:04.790Z,2.30
2019-05-22T12:11:34.147Z,2.87
2019-05-22T12:14:03.099Z,2.20
2019-05-22T12:16:32.529Z,3.40
2019-05-22T12:19:01.697Z,3.40
2019-05-22T12:21:31.754Z,2.57
2019-05-22T12:24:00.711Z,2.57
2019-05-22T12:26:29.987Z,2.63
2019-05-22T12:28:59.055Z,2.93
2019-05-22T12:31:28.112Z,2.90
2019-05-22T12:33:57.591Z,3.03
2019-05-22T12:36:27.513Z,2.97
2019-05-22T12:38:56.953Z,3.90
2019-05-22T12:41:25.880Z,3.97
2019-05-22T12:43:55.351Z,3.63
2019-05-22T12:46:24.968Z,3.27
2019-05-22T12:48:54.025Z,3.23
2019-05-22T12:51:23.600Z,3.47
2019-05-22T12:53:52.817Z,3.50
2019-05-22T12:56:22.170Z,3.10
2019-05-22T12:58:51.135Z,3.53
2019-05-22T13:01:20.658Z,3.00
2019-05-22T13:03:50.003Z,2.97
2019-05-22T13:06:19.625Z,2.97
2019-05-22T13:08:48.906Z,2.50
2019-05-22T13:11:17.898Z,2.30
2019-05-22T13:13:46.870Z,2.00
2019-05-22T13:16:15.980Z,2.27
2019-05-22T13:18:45.082Z,2.40
2019-05-22T13:21:16.252Z,2.73
2019-05-22T13:23:45.504Z,2.40
2019-05-22T13:26:15.654Z,1.80
2019-05-22T13:28:45.993Z,2.23
2019-05-22T13:31:15.381Z,2.43
2019-05-22T13:33:45.267Z,2.03
2019-05-22T13:36:16.005Z,1.60
2019-05-22T13:38:44.887Z,1.80
2019-05-22T13:41:13.877Z,2.03
2019-05-22T13:43:42.935Z,2.03
2019-05-22T13:46:11.888Z,1.93
2019-05-22T13:48:40.882Z,1.90
2019-05-22T13:51:11.600Z,1.60
2019-05-22T13:53:40.951Z,2.00
2019-05-22T13:56:10.133Z,1.50
2019-05-22T13:58:39.186Z,1.30
2019-05-22T14:01:08.592Z,1.40
2019-05-22T14:03:38.262Z,1.40
2019-05-22T14:06:07.501Z,1.70
2019-05-22T14:08:36.409Z,1.40
2019-05-22T14:11:05.927Z,1.60
2019-05-22T14:13:35.511Z,2.20
2019-05-22T14:16:04.775Z,1.27
2019-05-22T14:18:34.116Z,1.30
2019-05-22T14:21:03.016Z,1.30
2019-05-22T14:23:32.031Z,1.67
2019-05-22T14:26:01.004Z,1.30
2019-05-22T14:28:29.891Z,1.40
2019-05-22T14:30:58.956Z,1.60
2019-05-22T14:33:28.485Z,1.33
2019-05-22T14:35:58.430Z,1.50
2019-05-22T14:38:27.562Z,1.20
2019-05-22T14:40:56.975Z,1.30
2019-05-22T14:43:26.002Z,1.40
2019-05-22T14:45:55.960Z,1.30
2019-05-22T14:48:24.939Z,1.30
2019-05-22T14:50:53.890Z,1.17
2019-05-22T14:53:22.850Z,1.73
2019-05-22T14:55:52.826Z,1.37
2019-05-22T14:58:21.974Z,1.40
2019-05-22T15:00:51.451Z,1.20
2019-05-22T15:03:20.966Z,1.13
2019-05-22T15:05:50.093Z,1.47
2019-05-22T15:08:18.988Z,1.50
2019-05-22T15:10:47.979Z,1.40
2019-05-22T15:13:17.506Z,1.50
2019-05-22T15:15:46.965Z,1.60
2019-05-22T15:18:15.868Z,1.30
2019-05-22T15:20:46.569Z,1.40
2019-05-22T15:23:15.959Z,1.70
2019-05-22T15:25:45.007Z,1.60
2019-05-22T15:28:13.898Z,1.40
2019-05-22T15:30:43.157Z,1.50
2019-05-22T15:33:12.448Z,1.70
2019-05-22T15:35:41.796Z,1.43
2019-05-22T15:38:10.706Z,1.40
2019-05-22T15:40:40.150Z,1.30
2019-05-22T15:43:09.412Z,1.70
2019-05-22T15:45:39.974Z,1.70
2019-05-22T15:48:12.110Z,1.77
2019-05-22T15:50:43.018Z,1.73
2019-05-22T15:53:15.235Z,2.00
2019-05-22T15:55:44.887Z,1.60
2019-05-22T15:58:15.251Z,2.00
2019-05-22T16:00:44.204Z,2.10
2019-05-22T16:03:18.400Z,1.63
2019-05-22T16:05:48.043Z,1.70
2019-05-22T16:08:18.075Z,1.67
2019-05-22T16:10:48.141Z,1.80
2019-05-22T16:13:19.945Z,1.90
2019-05-22T16:15:50.469Z,1.70
2019-05-22T16:18:22.100Z,1.43
2019-05-22T16:20:51.731Z,1.90
2019-05-22T16:23:22.199Z,1.70
2019-05-22T16:25:52.658Z,1.83
2019-05-22T16:28:22.495Z,2.00
2019-05-22T16:30:51.779Z,2.13
2019-05-22T16:33:22.222Z,2.20
2019-05-22T16:35:51.654Z,2.27
2019-05-22T16:38:20.780Z,1.90
2019-05-22T16:40:50.546Z,1.90
2019-05-22T16:43:19.682Z,1.97
2019-05-22T16:45:49.520Z,1.97
2019-05-22T16:48:29.094Z,2.10
2019-05-22T16:50:51.262Z,2.13
2019-05-22T16:53:21.670Z,2.27
2019-05-22T16:55:50.896Z,1.60
2019-05-22T16:58:19.957Z,1.83
2019-05-22T17:00:49.191Z,2.10
2019-05-22T17:03:18.177Z,1.83
2019-05-22T17:05:47.228Z,1.80
2019-05-22T17:08:16.521Z,2.17
2019-05-22T17:10:45.522Z,1.83
2019-05-22T17:13:16.444Z,1.67
2019-05-22T17:15:45.405Z,1.83
2019-05-22T17:18:17.044Z,2.00
2019-05-22T17:20:46.926Z,1.67
2019-05-22T17:23:16.237Z,1.80
2019-05-22T17:25:45.371Z,1.97
2019-05-22T17:28:16.009Z,1.60
2019-05-22T17:30:45.931Z,1.70
2019-05-22T17:33:15.738Z,2.00
2019-05-22T17:35:44.753Z,1.77
2019-05-22T17:38:14.673Z,1.60
2019-05-22T17:40:43.656Z,1.87
2019-05-22T17:43:14.097Z,1.70
2019-05-22T17:45:43.725Z,1.60
2019-05-22T17:48:13.822Z,1.70
2019-05-22T17:50:43.352Z,1.60
2019-05-22T17:53:12.499Z,1.70
2019-05-22T17:55:42.139Z,1.60
2019-05-22T17:58:11.586Z,1.63
2019-05-22T18:00:51.184Z,1.70
2019-05-22T18:03:20.325Z,1.80
2019-05-22T18:05:49.686Z,1.47
2019-05-22T18:08:20.228Z,1.50
2019-05-22T18:10:49.664Z,1.47
2019-05-22T18:13:19.202Z,1.33
2019-05-22T18:15:48.747Z,1.60
2019-05-22T18:18:18.309Z,1.37
2019-05-22T18:20:47.349Z,2.03
2019-05-22T18:23:16.471Z,1.80
2019-05-22T18:25:45.451Z,1.70
2019-05-22T18:28:15.573Z,1.73
2019-05-22T18:30:44.641Z,1.80
2019-05-22T18:33:13.534Z,1.53
2019-05-22T18:35:42.463Z,1.67
2019-05-22T18:38:12.323Z,1.37
2019-05-22T18:40:41.268Z,1.50
2019-05-22T18:43:10.288Z,1.47
2019-05-22T18:45:40.040Z,1.30
2019-05-22T18:48:09.612Z,1.47
2019-05-22T18:50:39.047Z,1.30
2019-05-22T18:53:07.970Z,1.40
2019-05-22T18:55:36.932Z,1.17
2019-05-22T18:58:05.841Z,1.20
2019-05-22T19:00:34.988Z,1.10
2019-05-22T19:03:04.790Z,1.03
2019-05-22T19:05:34.182Z,1.00
2019-05-22T19:08:03.106Z,1.37
2019-05-22T19:10:32.069Z,1.20
2019-05-22T19:13:01.028Z,1.00
2019-05-22T19:15:30.091Z,1.13
2019-05-22T19:17:59.053Z,1.00
2019-05-22T19:20:27.951Z,1.03
2019-05-22T19:23:00.910Z,1.30
2019-05-22T19:25:27.700Z,1.27
2019-05-22T19:27:56.670Z,1.17
2019-05-22T19:30:25.779Z,1.10
2019-05-22T19:32:55.115Z,1.30
2019-05-22T19:35:24.123Z,1.10
2019-05-22T19:37:53.540Z,1.30
2019-05-22T19:40:22.667Z,1.13
2019-05-22T19:42:51.726Z,1.13
2019-05-22T19:45:20.783Z,1.20
2019-05-22T19:47:50.920Z,1.23
2019-05-22T19:50:23.356Z,1.10
2019-05-22T19:52:52.144Z,1.10
2019-05-22T19:55:22.352Z,1.00
2019-05-22T19:57:51.468Z,1.10
2019-05-22T20:00:22.062Z,1.20
2019-05-22T20:02:51.343Z,1.10
2019-05-22T20:05:20.731Z,1.03
2019-05-22T20:07:49.794Z,1.00
2019-05-22T20:10:18.823Z,1.00
2019-05-22T20:12:47.714Z,1.33
2019-05-22T20:15:16.817Z,1.20
2019-05-22T20:17:47.121Z,1.50
2019-05-22T20:20:17.141Z,1.20
2019-05-22T20:22:46.112Z,1.10
2019-05-22T20:25:16.908Z,1.43
2019-05-22T20:27:46.570Z,1.17
2019-05-22T20:30:18.164Z,1.13
2019-05-22T20:32:49.008Z,1.00
2019-05-22T20:35:18.513Z,0.90
2019-05-22T20:37:47.640Z,1.00
2019-05-22T20:40:18.036Z,1.10
2019-05-22T20:42:47.076Z,1.17
2019-05-22T20:45:17.305Z,1.47
2019-05-22T20:47:46.222Z,0.80
2019-05-22T20:50:15.546Z,1.00
2019-05-22T20:52:45.452Z,1.10
2019-05-22T20:55:14.740Z,1.73
2019-05-22T20:57:43.881Z,0.90
2019-05-22T21:00:14.906Z,1.20
2019-05-22T21:02:45.796Z,1.30
2019-05-22T21:05:15.352Z,1.20
2019-05-22T21:07:45.889Z,1.23
2019-05-22T21:10:15.675Z,0.90
2019-05-22T21:12:44.831Z,1.30
2019-05-22T21:15:14.779Z,1.53
2019-05-22T21:17:44.099Z,1.10
2019-05-22T21:20:15.670Z,1.50
2019-05-22T21:22:45.769Z,1.20
2019-05-22T21:25:15.643Z,1.20
2019-05-22T21:27:44.543Z,1.10
2019-05-22T21:30:13.908Z,1.30
2019-05-22T21:32:43.662Z,1.10
2019-05-22T21:35:17.322Z,1.30
2019-05-22T21:37:48.061Z,1.30
2019-05-22T21:40:20.004Z,1.37
2019-05-22T21:42:49.720Z,1.53
2019-05-22T21:45:19.268Z,1.57
2019-05-22T21:47:48.229Z,1.37
2019-05-22T21:50:17.622Z,1.20
2019-05-22T21:52:46.851Z,1.40
2019-05-22T21:55:17.482Z,1.33
2019-05-22T21:57:46.657Z,1.30
2019-05-22T22:00:24.357Z,1.43
2019-05-22T22:02:54.291Z,1.30
2019-05-22T22:05:23.829Z,1.47
2019-05-22T22:07:52.922Z,1.60
2019-05-22T22:10:22.245Z,1.73
2019-05-22T22:12:53.471Z,1.30
2019-05-22T22:15:22.388Z,1.63
2019-05-22T22:17:51.921Z,1.60
2019-05-22T22:20:21.274Z,1.83
2019-05-22T22:22:50.247Z,1.33
2019-05-22T22:25:21.239Z,1.70
2019-05-22T22:27:50.566Z,1.40
2019-05-22T22:30:25.510Z,1.60
2019-05-22T22:32:55.540Z,1.43
2019-05-22T22:35:24.499Z,1.77
2019-05-22T22:37:53.508Z,1.63
2019-05-22T22:40:24.304Z,1.63
2019-05-22T22:42:53.362Z,1.50
2019-05-22T22:45:42.056Z,2.07
2019-05-22T22:48:13.817Z,1.60
2019-05-22T22:50:42.972Z,1.60
2019-05-22T22:53:14.557Z,1.73
2019-05-22T22:55:44.060Z,1.80
2019-05-22T22:58:17.617Z,1.70
2019-05-22T23:00:47.293Z,1.80
2019-05-22T23:03:18.455Z,1.90
2019-05-22T23:05:49.199Z,1.80
2019-05-22T23:08:22.851Z,1.60
2019-05-22T23:10:52.792Z,1.73
2019-05-22T23:13:23.318Z,1.73
2019-05-22T23:15:53.840Z,2.30
2019-05-22T23:18:39.925Z,2.03
2019-05-22T23:21:09.288Z,2.27
2019-05-22T23:23:37.689Z,1.80
2019-05-22T23:26:08.868Z,2.20
2019-05-22T23:28:40.750Z,1.80
2019-05-22T23:31:11.644Z,2.00
2019-05-22T23:33:40.904Z,1.70
2019-05-22T23:36:11.955Z,2.10
2019-05-22T23:38:41.257Z,2.10
2019-05-22T23:41:12.362Z,2.10
2019-05-22T23:43:42.624Z,1.93
2019-05-22T23:46:13.351Z,2.27
2019-05-22T23:48:42.781Z,2.20
2019-05-22T23:51:12.260Z,2.40
2019-05-22T23:53:41.912Z,2.10
2019-05-22T23:56:10.838Z,2.30
2019-05-22T23:58:52.176Z,2.13
